createdAt,value
2022-12-18T00:01:55.655Z,43.15
2022-12-18T00:04:30.061Z,38.78
2022-12-18T00:07:02.948Z,46.92
2022-12-18T00:09:40.317Z,42.10
2022-12-18T00:14:48.689Z,38.67
2022-12-18T00:17:22.040Z,43.75
2022-12-18T00:19:56.418Z,36.15
2022-12-18T00:22:29.544Z,40.58
2022-12-18T00:25:02.387Z,41.10
2022-12-18T00:27:36.470Z,41.20
2022-12-18T00:30:10.418Z,37.78
2022-12-18T00:32:43.291Z,37.88
2022-12-18T00:35:17.704Z,38.80
2022-12-18T00:37:50.602Z,38.47
2022-12-18T00:40:23.514Z,38.63
2022-12-18T00:42:58.289Z,40.80
2022-12-18T00:45:33.090Z,40.10
2022-12-18T00:48:06.661Z,39.83
2022-12-18T00:50:40.853Z,40.45
2022-12-18T00:53:14.147Z,39.28
2022-12-18T00:55:48.311Z,37.75
2022-12-18T00:58:21.151Z,36.95
2022-12-18T01:00:54.117Z,39.63
2022-12-18T01:03:27.172Z,40.30
2022-12-18T01:06:01.464Z,38.15
2022-12-18T01:08:34.499Z,41.42
2022-12-18T01:11:10.426Z,43.58
2022-12-18T01:13:44.472Z,44.55
2022-12-18T01:16:18.740Z,38.53
2022-12-18T01:18:54.590Z,39.58
2022-12-18T01:21:29.008Z,37.72
2022-12-18T01:24:01.817Z,42.53
2022-12-18T01:26:34.637Z,42.15
2022-12-18T01:29:07.432Z,46.10
2022-12-18T01:31:40.441Z,42.85
2022-12-18T01:34:13.282Z,38.63
2022-12-18T01:36:47.463Z,43.67
2022-12-18T01:39:20.851Z,41.08
2022-12-18T01:42:10.383Z,43.08
2022-12-18T01:44:59.080Z,43.15
2022-12-18T01:47:37.295Z,43.30
2022-12-18T01:50:15.193Z,41.53
2022-12-18T01:52:54.079Z,44.25
2022-12-18T01:55:30.040Z,44.45
2022-12-18T01:58:03.267Z,43.15
2022-12-18T02:00:36.301Z,39.45
2022-12-18T02:03:09.189Z,46.50
2022-12-18T02:05:49.138Z,40.38
2022-12-18T02:08:28.618Z,44.65
2022-12-18T02:11:09.497Z,45.88
2022-12-18T02:13:48.684Z,46.70
2022-12-18T02:16:26.069Z,46.25
2022-12-18T02:19:02.676Z,48.10
2022-12-18T02:21:48.245Z,48.45
2022-12-18T02:24:32.800Z,46.92
2022-12-18T02:27:08.778Z,46.17
2022-12-18T02:29:46.381Z,47.65
2022-12-18T02:32:25.420Z,50.00
2022-12-18T02:34:59.440Z,42.95
2022-12-18T02:37:34.595Z,47.05
2022-12-18T02:40:09.902Z,47.47
2022-12-18T02:42:44.133Z,46.67
2022-12-18T02:45:17.162Z,49.30
2022-12-18T02:47:52.176Z,45.38
2022-12-18T02:50:33.449Z,50.55
2022-12-18T02:53:15.939Z,47.30
2022-12-18T02:55:58.282Z,48.63
2022-12-18T02:58:42.447Z,52.70
2022-12-18T03:01:21.241Z,45.78
2022-12-18T03:03:58.724Z,49.17
2022-12-18T03:06:37.102Z,48.95
2022-12-18T03:09:12.896Z,48.97
2022-12-18T03:12:08.097Z,45.05
2022-12-18T03:14:45.314Z,43.78
2022-12-18T03:17:22.761Z,44.47
2022-12-18T03:19:59.179Z,44.65
2022-12-18T03:22:35.428Z,43.83
2022-12-18T03:25:11.672Z,50.58
2022-12-18T03:27:48.538Z,50.97
2022-12-18T03:30:23.271Z,46.22
2022-12-18T03:33:03.926Z,51.33
2022-12-18T03:35:41.415Z,47.38
2022-12-18T03:38:14.968Z,44.10
2022-12-18T03:40:58.732Z,49.42
2022-12-18T03:43:42.638Z,46.13
2022-12-18T03:46:25.222Z,46.67
2022-12-18T03:49:07.911Z,44.67
2022-12-18T03:51:48.195Z,51.83
2022-12-18T03:54:21.888Z,48.97
2022-12-18T03:57:02.927Z,47.28
2022-12-18T03:59:37.440Z,50.08
2022-12-18T04:02:12.599Z,46.33
2022-12-18T04:04:49.348Z,45.20
2022-12-18T04:07:23.440Z,47.88
2022-12-18T04:10:00.121Z,48.45
2022-12-18T04:12:33.039Z,47.08
2022-12-18T04:15:06.952Z,52.50
2022-12-18T04:17:45.401Z,49.17
2022-12-18T04:20:19.171Z,44.05
2022-12-18T04:22:51.938Z,47.17
2022-12-18T04:25:24.834Z,49.28
2022-12-18T04:27:57.965Z,53.88
2022-12-18T04:30:30.768Z,48.80
2022-12-18T04:33:04.950Z,49.47
2022-12-18T04:35:37.725Z,52.53
2022-12-18T04:38:11.913Z,48.50
2022-12-18T04:40:45.365Z,47.47
2022-12-18T04:43:18.259Z,51.60
2022-12-18T04:45:51.197Z,52.40
2022-12-18T04:48:25.658Z,47.20
2022-12-18T04:50:58.470Z,52.13
2022-12-18T04:53:31.382Z,54.25
2022-12-18T04:56:06.296Z,54.20
2022-12-18T04:58:40.099Z,51.08
2022-12-18T05:01:14.640Z,48.72
2022-12-18T05:03:49.581Z,49.83
2022-12-18T05:06:22.662Z,52.30
2022-12-18T05:08:55.472Z,51.88
2022-12-18T05:11:28.454Z,51.38
2022-12-18T05:14:01.218Z,52.92
2022-12-18T05:16:34.007Z,49.10
2022-12-18T05:19:08.540Z,51.85
2022-12-18T05:21:41.309Z,52.47
2022-12-18T05:24:14.150Z,52.30
2022-12-18T05:26:47.060Z,51.95
2022-12-18T05:29:19.972Z,50.35
2022-12-18T05:31:52.898Z,48.60
2022-12-18T05:34:27.147Z,48.70
2022-12-18T05:37:00.012Z,48.65
2022-12-18T05:39:32.764Z,51.10
2022-12-18T05:42:05.691Z,49.20
2022-12-18T05:44:38.526Z,50.53
2022-12-18T05:47:11.541Z,52.00
2022-12-18T05:49:45.769Z,50.97
2022-12-18T05:52:18.611Z,55.55
2022-12-18T05:54:51.487Z,54.42
2022-12-18T05:57:24.303Z,47.60
2022-12-18T05:59:57.156Z,50.25
2022-12-18T06:02:30.044Z,53.17
2022-12-18T06:05:04.596Z,54.13
2022-12-18T06:07:37.391Z,43.65
2022-12-18T06:10:10.480Z,47.22
2022-12-18T06:12:43.314Z,52.63
2022-12-18T06:15:16.302Z,48.50
2022-12-18T06:17:49.983Z,51.33
2022-12-18T06:20:26.905Z,50.33
2022-12-18T06:23:03.305Z,45.38
2022-12-18T06:25:38.794Z,45.70
2022-12-18T06:28:11.546Z,43.08
2022-12-18T06:30:45.473Z,48.20
2022-12-18T06:33:19.040Z,40.75
2022-12-18T06:35:56.548Z,43.40
2022-12-18T06:41:09.114Z,37.65
2022-12-18T06:43:42.568Z,41.67
2022-12-18T06:46:17.023Z,40.85
2022-12-18T06:48:51.281Z,44.47
2022-12-18T06:51:26.692Z,44.22
2022-12-18T06:53:59.644Z,44.60
2022-12-18T06:56:32.723Z,42.53
2022-12-18T06:59:05.516Z,48.08
2022-12-18T07:01:38.573Z,46.58
2022-12-18T07:04:11.519Z,47.00
2022-12-18T07:06:45.772Z,45.00
2022-12-18T07:09:18.605Z,44.55
2022-12-18T07:11:51.383Z,47.30
2022-12-18T07:14:24.253Z,46.10
2022-12-18T07:16:57.114Z,45.60
2022-12-18T07:19:30.087Z,42.47
2022-12-18T07:22:05.346Z,48.88
2022-12-18T07:24:39.384Z,46.85
2022-12-18T07:27:12.264Z,51.75
2022-12-18T07:29:45.064Z,46.22
2022-12-18T07:32:18.232Z,46.22
2022-12-18T07:34:51.225Z,42.67
2022-12-18T07:37:25.475Z,48.72
2022-12-18T07:39:58.354Z,47.92
2022-12-18T07:42:33.971Z,44.58
2022-12-18T07:45:07.794Z,47.35
2022-12-18T07:47:42.231Z,44.20
2022-12-18T07:50:15.261Z,47.47
2022-12-18T07:52:49.764Z,49.75
2022-12-18T07:55:22.543Z,49.13
2022-12-18T07:58:00.726Z,50.72
2022-12-18T08:00:33.901Z,50.95
2022-12-18T08:03:06.794Z,53.45
2022-12-18T08:05:39.786Z,47.47
2022-12-18T08:08:14.056Z,50.50
2022-12-18T08:10:48.203Z,52.83
2022-12-18T08:13:21.257Z,52.47
2022-12-18T08:16:02.401Z,50.70
2022-12-18T08:18:35.835Z,48.78
2022-12-18T08:21:12.652Z,50.50
2022-12-18T08:23:47.508Z,51.70
2022-12-18T08:26:22.091Z,49.50
2022-12-18T08:28:56.502Z,49.85
2022-12-18T08:31:31.418Z,50.17
2022-12-18T08:34:04.423Z,48.50
2022-12-18T08:36:37.456Z,56.08
2022-12-18T08:39:12.294Z,47.88
2022-12-18T08:42:09.863Z,47.60
2022-12-18T08:44:42.223Z,48.00
2022-12-18T08:47:15.110Z,48.45
2022-12-18T08:49:47.945Z,47.33
2022-12-18T08:52:20.720Z,46.53
2022-12-18T08:54:54.843Z,48.15
2022-12-18T08:57:27.660Z,49.90
2022-12-18T09:00:00.498Z,52.55
2022-12-18T09:02:33.456Z,45.88
2022-12-18T09:05:07.229Z,49.13
2022-12-18T09:07:40.044Z,42.95
2022-12-18T09:10:14.349Z,40.60
2022-12-18T09:12:47.137Z,49.17
2022-12-18T09:15:21.073Z,50.92
2022-12-18T09:17:54.941Z,45.35
2022-12-18T09:20:29.403Z,48.40
2022-12-18T09:23:02.189Z,48.38
2022-12-18T09:25:37.874Z,50.92
2022-12-18T09:28:13.878Z,46.38
2022-12-18T09:30:48.335Z,46.58
2022-12-18T09:33:21.232Z,45.70
2022-12-18T09:35:54.112Z,43.58
2022-12-18T09:38:26.983Z,50.70
2022-12-18T09:41:06.888Z,47.53
2022-12-18T09:43:45.986Z,44.15
2022-12-18T09:46:26.519Z,47.10
2022-12-18T09:49:03.403Z,44.50
2022-12-18T09:51:39.610Z,44.78
2022-12-18T09:54:16.362Z,43.20
2022-12-18T09:56:50.698Z,43.40
2022-12-18T09:59:27.526Z,43.63
2022-12-18T10:02:01.523Z,43.13
2022-12-18T10:04:35.177Z,39.67
2022-12-18T10:07:17.121Z,44.70
2022-12-18T10:12:35.315Z,33.85
2022-12-18T10:15:13.926Z,39.63
2022-12-18T10:17:53.870Z,37.80
2022-12-18T10:20:34.236Z,45.75
2022-12-18T10:23:21.049Z,45.50
2022-12-18T10:26:01.915Z,40.13
2022-12-18T10:28:38.937Z,40.40
2022-12-18T10:31:18.125Z,43.55
2022-12-18T10:33:51.369Z,38.80
2022-12-18T10:36:25.906Z,39.10
2022-12-18T10:39:17.694Z,39.65
2022-12-18T10:41:50.811Z,35.78
2022-12-18T10:44:27.197Z,38.00
2022-12-18T10:47:11.689Z,43.90
2022-12-18T10:49:56.087Z,39.67
2022-12-18T10:52:29.653Z,38.33
2022-12-18T10:55:06.144Z,40.00
2022-12-18T10:57:41.488Z,41.22
2022-12-18T11:00:30.681Z,38.33
2022-12-18T11:03:03.700Z,38.40
2022-12-18T11:05:38.037Z,40.85
2022-12-18T11:08:23.745Z,41.70
2022-12-18T11:10:56.621Z,36.70
2022-12-18T11:13:32.053Z,41.33
2022-12-18T11:16:06.708Z,40.22
2022-12-18T11:18:40.102Z,45.53
2022-12-18T11:21:15.608Z,45.67
2022-12-18T11:23:52.779Z,41.97
2022-12-18T11:26:37.169Z,47.22
2022-12-18T11:29:12.561Z,42.10
2022-12-18T11:31:46.870Z,44.38
2022-12-18T11:34:29.487Z,44.10
2022-12-18T11:37:05.949Z,44.80
2022-12-18T11:39:41.714Z,44.03
2022-12-18T11:42:22.205Z,37.75
2022-12-18T11:44:59.452Z,40.70
2022-12-18T11:47:43.697Z,41.85
2022-12-18T11:50:20.427Z,39.75
2022-12-18T11:52:58.195Z,36.50
2022-12-18T11:55:43.567Z,41.38
2022-12-18T11:58:44.553Z,44.50
2022-12-18T12:01:41.977Z,41.10
2022-12-18T12:04:35.880Z,41.47
2022-12-18T12:07:23.377Z,42.78
2022-12-18T12:10:05.421Z,37.70
2022-12-18T12:12:52.437Z,39.53
2022-12-18T12:15:38.968Z,39.30
2022-12-18T12:18:26.901Z,38.05
2022-12-18T12:21:09.476Z,39.17
2022-12-18T12:23:48.112Z,36.95
2022-12-18T12:26:29.732Z,33.83
2022-12-18T12:29:16.618Z,39.05
2022-12-18T12:32:06.476Z,41.45
2022-12-18T12:34:46.313Z,39.05
2022-12-18T12:37:32.372Z,37.55
2022-12-18T12:40:26.830Z,39.15
2022-12-18T12:43:13.766Z,35.28
2022-12-18T12:45:51.541Z,34.45
2022-12-18T12:48:36.535Z,36.75
2022-12-18T12:51:18.307Z,38.45
2022-12-18T12:53:55.628Z,35.80
2022-12-18T12:56:42.106Z,37.15
2022-12-18T12:59:21.294Z,34.92
2022-12-18T13:02:01.758Z,39.17
2022-12-18T13:04:42.051Z,42.40
2022-12-18T13:07:18.242Z,38.22
2022-12-18T13:10:17.550Z,39.17
2022-12-18T13:12:59.261Z,42.90
2022-12-18T13:15:40.030Z,42.65
2022-12-18T13:18:19.204Z,40.80
2022-12-18T13:21:05.700Z,37.42
2022-12-18T13:23:42.981Z,39.97
2022-12-18T13:26:36.294Z,38.83
2022-12-18T13:29:09.468Z,41.28
2022-12-18T13:32:23.257Z,38.67
2022-12-18T13:35:40.378Z,40.83
2022-12-18T13:38:24.915Z,40.58
2022-12-18T13:40:59.684Z,41.35
2022-12-18T13:43:38.295Z,44.40
2022-12-18T13:46:26.437Z,41.10
2022-12-18T13:49:07.758Z,40.20
2022-12-18T13:51:43.844Z,39.60
2022-12-18T13:54:24.454Z,42.15
2022-12-18T13:56:57.397Z,43.83
2022-12-18T13:59:38.071Z,41.75
2022-12-18T14:02:16.646Z,42.70
2022-12-18T14:04:51.567Z,38.97
2022-12-18T14:07:26.262Z,36.65
2022-12-18T14:10:12.562Z,36.75
2022-12-18T14:13:00.934Z,33.80
2022-12-18T14:15:41.248Z,34.57
2022-12-18T14:18:23.930Z,36.60
2022-12-18T14:20:59.577Z,39.13
2022-12-18T14:23:35.441Z,39.55
2022-12-18T14:26:24.933Z,38.95
2022-12-18T14:28:57.778Z,37.00
2022-12-18T14:31:33.393Z,35.17
2022-12-18T14:34:06.305Z,38.63
2022-12-18T14:36:40.904Z,35.65
2022-12-18T14:39:19.688Z,38.17
2022-12-18T14:41:52.705Z,38.50
2022-12-18T14:44:28.578Z,40.35
2022-12-18T14:47:16.532Z,37.28
2022-12-18T14:49:50.060Z,35.78
2022-12-18T14:52:29.421Z,33.00
2022-12-18T14:55:02.344Z,33.90
2022-12-18T14:57:41.378Z,32.25
2022-12-18T15:00:19.569Z,35.40
2022-12-18T15:02:56.854Z,33.13
2022-12-18T15:05:31.542Z,35.78
2022-12-18T15:08:04.924Z,35.58
2022-12-18T15:10:49.895Z,35.28
2022-12-18T15:13:25.443Z,38.00
2022-12-18T15:16:00.371Z,37.42
2022-12-18T15:18:43.680Z,36.75
2022-12-18T15:21:20.207Z,34.63
2022-12-18T15:23:54.604Z,36.58
2022-12-18T15:26:27.806Z,38.67
2022-12-18T15:29:02.778Z,33.60
2022-12-18T15:31:37.349Z,34.33
2022-12-18T15:34:21.704Z,38.00
2022-12-18T15:36:54.799Z,33.30
2022-12-18T15:39:28.947Z,35.88
2022-12-18T15:42:20.962Z,31.23
2022-12-18T15:47:29.416Z,31.77
2022-12-18T15:50:04.301Z,33.70
2022-12-18T15:52:42.332Z,34.70
2022-12-18T15:55:34.614Z,38.10
2022-12-18T15:58:10.438Z,35.55
2022-12-18T16:00:43.730Z,33.38
2022-12-18T16:03:18.457Z,38.60
2022-12-18T16:05:52.720Z,43.10
2022-12-18T16:08:25.512Z,39.47
2022-12-18T16:10:58.994Z,38.67
2022-12-18T16:13:31.923Z,40.28
2022-12-18T16:16:04.950Z,35.50
2022-12-18T16:18:37.867Z,40.42
2022-12-18T16:21:12.474Z,41.83
2022-12-18T16:23:46.843Z,41.50
2022-12-18T16:26:19.837Z,38.97
2022-12-18T16:28:54.189Z,40.92
2022-12-18T16:31:27.139Z,41.50
2022-12-18T16:34:13.038Z,38.50
2022-12-18T16:36:47.587Z,35.92
2022-12-18T16:39:20.592Z,36.00
2022-12-18T16:41:53.615Z,38.97
2022-12-18T16:44:27.239Z,36.30
2022-12-18T16:47:02.925Z,34.15
2022-12-18T16:49:36.222Z,34.67
2022-12-18T16:52:11.035Z,39.13
2022-12-18T16:54:44.232Z,36.60
2022-12-18T16:57:18.937Z,36.85
2022-12-18T16:59:51.966Z,37.33
2022-12-18T17:02:27.368Z,40.05
2022-12-18T17:05:01.339Z,35.03
2022-12-18T17:07:36.196Z,32.80
2022-12-18T17:10:12.843Z,31.00
2022-12-18T17:12:45.690Z,40.70
2022-12-18T17:15:18.896Z,37.22
2022-12-18T17:17:52.902Z,35.97
2022-12-18T17:20:26.529Z,33.35
2022-12-18T17:23:01.292Z,37.97
2022-12-18T17:25:35.673Z,36.55
2022-12-18T17:28:08.575Z,38.35
2022-12-18T17:30:44.412Z,39.53
2022-12-18T17:33:17.253Z,35.70
2022-12-18T17:35:50.358Z,36.40
2022-12-18T17:38:24.771Z,34.08
2022-12-18T17:41:02.085Z,39.05
2022-12-18T17:43:36.231Z,32.00
2022-12-18T17:46:09.203Z,33.28
2022-12-18T17:48:42.904Z,34.95
2022-12-18T17:51:17.005Z,31.60
2022-12-18T17:53:51.583Z,31.15
2022-12-18T17:56:26.082Z,34.38
2022-12-18T17:59:00.561Z,33.10
2022-12-18T18:01:42.423Z,35.70
2022-12-18T18:04:17.346Z,32.40
2022-12-18T18:06:50.423Z,37.95
2022-12-18T18:09:27.270Z,36.65
2022-12-18T18:12:17.422Z,37.25
2022-12-18T18:14:50.656Z,33.45
2022-12-18T18:17:26.114Z,38.38
2022-12-18T18:19:58.989Z,36.75
2022-12-18T18:22:32.196Z,34.15
2022-12-18T18:25:10.707Z,39.40
2022-12-18T18:27:44.109Z,35.72
2022-12-18T18:30:20.029Z,35.70
2022-12-18T18:32:53.049Z,37.35
2022-12-18T18:35:52.957Z,37.50
2022-12-18T18:38:20.389Z,34.08
2022-12-18T18:41:00.705Z,36.45
2022-12-18T18:43:33.776Z,37.97
2022-12-18T18:46:07.576Z,35.08
2022-12-18T18:48:42.373Z,35.15
2022-12-18T18:51:21.100Z,35.22
2022-12-18T18:53:55.224Z,37.33
2022-12-18T18:59:23.613Z,35.40
2022-12-18T19:02:05.403Z,34.90
2022-12-18T19:04:45.695Z,37.67
2022-12-18T19:07:29.955Z,36.97
2022-12-18T19:10:05.407Z,39.90
2022-12-18T19:12:54.011Z,41.22
2022-12-18T19:15:26.948Z,35.50
2022-12-18T19:18:00.173Z,38.17
2022-12-18T19:20:33.341Z,39.00
2022-12-18T19:23:06.203Z,41.30
2022-12-18T19:25:41.641Z,37.92
2022-12-18T19:28:22.070Z,37.58
2022-12-18T19:30:59.324Z,37.65
2022-12-18T19:33:43.155Z,42.30
2022-12-18T19:36:21.227Z,39.03
2022-12-18T19:38:56.395Z,39.38
2022-12-18T19:41:31.133Z,41.72
2022-12-18T19:44:08.703Z,39.08
2022-12-18T19:46:42.436Z,37.20
2022-12-18T19:49:18.241Z,36.35
2022-12-18T19:51:51.612Z,38.67
2022-12-18T19:54:24.472Z,37.85
2022-12-18T19:57:00.861Z,38.25
2022-12-18T19:59:35.829Z,42.45
2022-12-18T20:02:14.359Z,35.35
2022-12-18T20:04:47.616Z,44.70
2022-12-18T20:07:20.434Z,37.97
2022-12-18T20:09:59.539Z,37.35
2022-12-18T20:12:36.995Z,39.25
2022-12-18T20:15:13.164Z,37.70
2022-12-18T20:17:46.051Z,42.40
2022-12-18T20:20:19.226Z,37.47
2022-12-18T20:22:52.339Z,40.30
2022-12-18T20:25:25.305Z,43.15
2022-12-18T20:27:58.501Z,38.42
2022-12-18T20:30:43.669Z,42.35
2022-12-18T20:33:16.890Z,36.92
2022-12-18T20:35:49.812Z,42.78
2022-12-18T20:38:23.575Z,43.92
2022-12-18T20:41:08.197Z,43.25
2022-12-18T20:43:41.353Z,48.20
2022-12-18T20:46:17.634Z,42.92
2022-12-18T20:48:51.029Z,41.78
2022-12-18T20:51:24.102Z,48.08
2022-12-18T20:53:59.587Z,48.75
2022-12-18T20:56:32.400Z,42.58
2022-12-18T20:59:05.593Z,42.65
2022-12-18T21:01:41.526Z,43.60
2022-12-18T21:04:22.865Z,49.88
2022-12-18T21:07:02.446Z,45.20
2022-12-18T21:09:38.119Z,47.28
2022-12-18T21:12:34.883Z,43.53
2022-12-18T21:15:13.384Z,44.75
2022-12-18T21:17:47.684Z,41.15
2022-12-18T21:20:20.601Z,43.78
2022-12-18T21:22:54.081Z,43.70
2022-12-18T21:25:30.507Z,41.33
2022-12-18T21:28:03.407Z,46.08
2022-12-18T21:30:36.557Z,44.13
2022-12-18T21:33:10.901Z,41.42
2022-12-18T21:35:43.745Z,49.42
2022-12-18T21:38:17.032Z,42.45
2022-12-18T21:40:50.080Z,42.42
2022-12-18T21:43:40.744Z,47.33
2022-12-18T21:46:14.014Z,46.50
2022-12-18T21:48:48.378Z,48.08
2022-12-18T21:51:21.367Z,49.90
2022-12-18T21:53:54.208Z,47.28
2022-12-18T21:56:43.370Z,48.25
2022-12-18T21:59:18.397Z,41.33
2022-12-18T22:01:52.918Z,51.25
2022-12-18T22:04:27.887Z,45.60
2022-12-18T22:07:02.593Z,45.33
2022-12-18T22:09:35.624Z,49.45
2022-12-18T22:12:09.250Z,43.40
2022-12-18T22:14:42.082Z,45.72
2022-12-18T22:17:14.991Z,48.13
2022-12-18T22:19:51.174Z,46.67
2022-12-18T22:22:24.028Z,43.85
2022-12-18T22:24:56.988Z,48.17
2022-12-18T22:27:29.801Z,52.25
2022-12-18T22:30:04.845Z,49.25
2022-12-18T22:32:37.689Z,41.38
2022-12-18T22:35:15.781Z,44.92
2022-12-18T22:37:48.860Z,46.78
2022-12-18T22:40:25.395Z,41.35
2022-12-18T22:42:58.844Z,48.63
2022-12-18T22:45:31.716Z,46.13
2022-12-18T22:48:07.392Z,41.45
2022-12-18T22:50:41.995Z,46.70
2022-12-18T22:53:15.086Z,44.55
2022-12-18T22:55:48.029Z,43.58
2022-12-18T22:58:20.848Z,43.30
2022-12-18T23:00:53.742Z,48.55
2022-12-18T23:03:26.845Z,47.10
2022-12-18T23:06:05.999Z,43.30
2022-12-18T23:08:38.823Z,42.42
2022-12-18T23:11:12.664Z,47.67
2022-12-18T23:13:46.485Z,49.28
2022-12-18T23:16:21.054Z,44.05
2022-12-18T23:18:56.571Z,48.40
2022-12-18T23:21:30.897Z,42.08
2022-12-18T23:24:05.440Z,48.10
2022-12-18T23:26:38.914Z,44.25
2022-12-18T23:29:11.696Z,44.65
2022-12-18T23:31:44.808Z,42.67
2022-12-18T23:34:18.134Z,43.47
2022-12-18T23:36:56.015Z,52.30
2022-12-18T23:39:30.385Z,44.80
2022-12-18T23:42:04.707Z,45.08
2022-12-18T23:44:39.014Z,41.92
2022-12-18T23:47:12.138Z,43.58
2022-12-18T23:49:45.067Z,41.70
2022-12-18T23:52:19.261Z,43.42
2022-12-18T23:54:53.653Z,44.05
2022-12-18T23:57:26.515Z,42.55
